Bewolkt
Bewolkt
Bewolkt
Bewolkt
Bewolkt
Bewolkt
Bewolkt
Overwegend bewolkt
Bewolkt met lichte regen
(°C)
13°
13°
13°
13°
14°
14°
14°
14°
14°
14°
15°
15°
16°
16°
17°
17°
18°
18°
(°C)
10°
10°
11°
11°
11°
12°
13°
14°
15°
ZO
ZO
ZO
ZO
ZO
ZZO
ZZO
ZZO
ZZO
(km/h)
12-21
13-22
13-19
13-19
13-17
12-20
13-23
14-25
15-29
(mm)
0
0
0
0
0
0
0
0
0.8
(%)
0
0
0
0
17
23
17
5
38

Zonverhoging

/ -8.6°
sun-icon
UV 1
04:56
21:48
Eerste kwartaal maan (93°)
13:26
01:47

METAR voor Bordenau (ETNW)

Tijd Voorwaarden Temperatuur/
Dauwpunt
Wind Zicht Weer Wolken Luchtdruk Wijzigen Ruw
VFR 13°C / 8°C 130º 6kt 9700m - Scattered Clouds 8000ft
Broken Clouds 13000ft
1012 - ETNW 140020Z 13006KT 9999 SCT080 BKN130 13/08 Q1012 BLU
VFR 13°C / 8°C 130º 5kt 9700m - Few Clouds 8000ft
Broken Clouds 14000ft
1013 - ETNW 132320Z 13005KT 9999 FEW080 BKN140 13/08 Q1013 BLU
VFR 13°C / 7°C 130º 6kt 9700m - Few Clouds 8000ft
Broken Clouds 15000ft
1013 - ETNW 132220Z 13006KT 9999 FEW080 BKN150 13/07 Q1013 BLU
VFR 14°C / 7°C 130º 5kt 9700m - Few Clouds 8000ft
Broken Clouds 15000ft
1014 - ETNW 132120Z 13005KT 9999 FEW080 BKN150 14/07 Q1014 BLU
VFR 14°C / 7°C 140º 5kt 9700m - Few Clouds 8000ft
Broken Clouds 19000ft
1014 - ETNW 132020Z 14005KT 9999 FEW080 BKN190 14/07 Q1014 BLU
VFR 15°C / 7°C 130º 5kt 9700m - Scattered Clouds 8000ft
Broken Clouds 19000ft
1014 - ETNW 131930Z 13005KT 9999 SCT080 BKN190 15/07 Q1014 BLU FCST CNL
VFR 15°C / 7°C 130º 6kt 9700m - Scattered Clouds 8000ft
Broken Clouds 19000ft
1014 - ETNW 131920Z 13006KT 9999 SCT080 BKN190 15/07 Q1014 BLU BLU
VFR 17°C / 7°C 160º 5kt 9700m - Broken Clouds 8000ft
Broken Clouds 22000ft
1014 - ETNW 131820Z 16005KT 9999 BKN080 BKN220 17/07 Q1014 BLU BLU
VFR 17°C / 5°C 200º 3kt 9700m - Few Clouds 5100ft
Broken Clouds 8000ft
Broken Clouds 24000ft
1015 - ETNW 131720Z 20003KT 9999 FEW051 BKN080 BKN240 17/05 Q1015 BLU BLU
VFR 18°C / 5°C 210º 3kt 9700m - Few Clouds 5100ft
Broken Clouds 8000ft
Broken Clouds 24000ft
1015 - ETNW 131620Z 21003KT 9999 FEW051 BKN080 BKN240 18/05 Q1015 BLU BLU
VFR 18°C / 5°C 250º 4kt 9700m - Scattered Clouds 5100ft
Scattered Clouds 10000ft
Broken Clouds 20000ft
1015 - ETNW 131520Z 25004KT 9999 SCT051 SCT100 BKN200 18/05 Q1015 BLU+BLU
VFR 17°C / 5°C 230º 5kt 9700m - Scattered Clouds 5500ft
Broken Clouds 10000ft
Broken Clouds 19000ft
1016 - ETNW 131420Z 23005KT 9999 SCT055 BKN100 BKN190 17/05 Q1016 BLU BLU
VFR 17°C / 6°C 220º 7kt 9700m - Scattered Clouds 5500ft
Broken Clouds 10000ft
Broken Clouds 19000ft
1017 - ETNW 131320Z 22007KT 9999 SCT055 BKN100 BKN190 17/06 Q1017 BLU BLU
VFR 15°C / 4°C 250º 6kt 9700m - Few Clouds 4000ft
Broken Clouds 5000ft
Broken Clouds 10000ft
1017 - ETNW 131220Z 25006KT 9999 FEW040 BKN050 BKN100 15/04 Q1017 BLU BLU
VFR 15°C / 4°C 250º 8kt 9700m - Few Clouds 3900ft
Broken Clouds 4500ft
Broken Clouds 14000ft
1017 - ETNW 131120Z 25008KT 9999 FEW039 BKN045 BKN140 15/04 Q1017 BLU BLU
VFR 15°C / 5°C 280º 7kt 9700m - Scattered Clouds 3900ft
Broken Clouds 10000ft
1017 - ETNW 131020Z 28007KT 9999 SCT039 BKN100 15/05 Q1017 BLU BLU
VFR 14°C / 5°C 240º 8kt 9700m - Scattered Clouds 3200ft
Broken Clouds 11000ft
1018 - ETNW 130920Z 24008KT 9999 SCT032 BKN110 14/05 Q1018 BLU BLU
VFR 14°C / 6°C 250º 9kt 9700m - Scattered Clouds 3100ft
Broken Clouds 11000ft
1018 - ETNW 130850Z 25009KT 9999 SCT031 BKN110 14/06 Q1018 BLU BLU
VFR 13°C / 6°C 270º 8kt 9700m - Scattered Clouds 3200ft
Scattered Clouds 10000ft
1018 Becoming: blowing . ETNW 130820Z 27008KT 9999 SCT032 SCT100 13/06 Q1018 BLU+BLU+ BECMG BLU
VFR 13°C / 6°C 240º 6kt 9700m - Scattered Clouds 2700ft
Scattered Clouds 11000ft
1018 Becoming: blowing . ETNW 130720Z 24006KT 9999 SCT027 SCT110 13/06 Q1018 BLU+BLU+ BECMG BLU
VFR 11°C / 6°C 250º 5kt 9700m - Few Clouds 3000ft 1018 Becoming: blowing . ETNW 130620Z 25005KT 9999 FEW030 11/06 Q1018 BLU+BLU+ BECMG BLU
VFR 10°C / 6°C 250º 5kt 9700m - Few Clouds 11000ft 1018 Becoming: blowing . ETNW 130520Z 25005KT 9999 FEW110 10/06 Q1018 BLU+BLU+ BECMG BLU
VFR 8°C / 6°C 240º 3kt 9700m - Scattered Clouds 11000ft 1018 Becoming: blowing . ETNW 130420Z 24003KT 9999 SCT110 08/06 Q1018 BLU+BLU+ BECMG BLU
VFR 8°C / 6°C 240º 3kt 9700m - Broken Clouds 12000ft 1018 - ETNW 130320Z 24003KT 9999 BKN120 08/06 Q1018 BLU

VFR

13°C / 8°C

[Meer]
Wind 130º 6kt
Zicht 9700m
Weer -
Wolken Scattered Clouds 8000ft
Broken Clouds 13000ft
Luchtdruk 1012
Wijzigen -
Ruw ETNW 140020Z 13006KT 9999 SCT080 BKN130 13/08 Q1012 BLU

VFR

13°C / 8°C

[Meer]
Wind 130º 5kt
Zicht 9700m
Weer -
Wolken Few Clouds 8000ft
Broken Clouds 14000ft
Luchtdruk 1013
Wijzigen -
Ruw ETNW 132320Z 13005KT 9999 FEW080 BKN140 13/08 Q1013 BLU

VFR

13°C / 7°C

[Meer]
Wind 130º 6kt
Zicht 9700m
Weer -
Wolken Few Clouds 8000ft
Broken Clouds 15000ft
Luchtdruk 1013
Wijzigen -
Ruw ETNW 132220Z 13006KT 9999 FEW080 BKN150 13/07 Q1013 BLU

VFR

14°C / 7°C

[Meer]
Wind 130º 5kt
Zicht 9700m
Weer -
Wolken Few Clouds 8000ft
Broken Clouds 15000ft
Luchtdruk 1014
Wijzigen -
Ruw ETNW 132120Z 13005KT 9999 FEW080 BKN150 14/07 Q1014 BLU

VFR

14°C / 7°C

[Meer]
Wind 140º 5kt
Zicht 9700m
Weer -
Wolken Few Clouds 8000ft
Broken Clouds 19000ft
Luchtdruk 1014
Wijzigen -
Ruw ETNW 132020Z 14005KT 9999 FEW080 BKN190 14/07 Q1014 BLU

VFR

15°C / 7°C

[Meer]
Wind 130º 5kt
Zicht 9700m
Weer -
Wolken Scattered Clouds 8000ft
Broken Clouds 19000ft
Luchtdruk 1014
Wijzigen -
Ruw ETNW 131930Z 13005KT 9999 SCT080 BKN190 15/07 Q1014 BLU FCST CNL

VFR

15°C / 7°C

[Meer]
Wind 130º 6kt
Zicht 9700m
Weer -
Wolken Scattered Clouds 8000ft
Broken Clouds 19000ft
Luchtdruk 1014
Wijzigen -
Ruw ETNW 131920Z 13006KT 9999 SCT080 BKN190 15/07 Q1014 BLU BLU

VFR

17°C / 7°C

[Meer]
Wind 160º 5kt
Zicht 9700m
Weer -
Wolken Broken Clouds 8000ft
Broken Clouds 22000ft
Luchtdruk 1014
Wijzigen -
Ruw ETNW 131820Z 16005KT 9999 BKN080 BKN220 17/07 Q1014 BLU BLU

VFR

17°C / 5°C

[Meer]
Wind 200º 3kt
Zicht 9700m
Weer -
Wolken Few Clouds 5100ft
Broken Clouds 8000ft
Broken Clouds 24000ft
Luchtdruk 1015
Wijzigen -
Ruw ETNW 131720Z 20003KT 9999 FEW051 BKN080 BKN240 17/05 Q1015 BLU BLU

VFR

18°C / 5°C

[Meer]
Wind 210º 3kt
Zicht 9700m
Weer -
Wolken Few Clouds 5100ft
Broken Clouds 8000ft
Broken Clouds 24000ft
Luchtdruk 1015
Wijzigen -
Ruw ETNW 131620Z 21003KT 9999 FEW051 BKN080 BKN240 18/05 Q1015 BLU BLU

VFR

18°C / 5°C

[Meer]
Wind 250º 4kt
Zicht 9700m
Weer -
Wolken Scattered Clouds 5100ft
Scattered Clouds 10000ft
Broken Clouds 20000ft
Luchtdruk 1015
Wijzigen -
Ruw ETNW 131520Z 25004KT 9999 SCT051 SCT100 BKN200 18/05 Q1015 BLU+BLU

VFR

17°C / 5°C

[Meer]
Wind 230º 5kt
Zicht 9700m
Weer -
Wolken Scattered Clouds 5500ft
Broken Clouds 10000ft
Broken Clouds 19000ft
Luchtdruk 1016
Wijzigen -
Ruw ETNW 131420Z 23005KT 9999 SCT055 BKN100 BKN190 17/05 Q1016 BLU BLU

VFR

17°C / 6°C

[Meer]
Wind 220º 7kt
Zicht 9700m
Weer -
Wolken Scattered Clouds 5500ft
Broken Clouds 10000ft
Broken Clouds 19000ft
Luchtdruk 1017
Wijzigen -
Ruw ETNW 131320Z 22007KT 9999 SCT055 BKN100 BKN190 17/06 Q1017 BLU BLU

VFR

15°C / 4°C

[Meer]
Wind 250º 6kt
Zicht 9700m
Weer -
Wolken Few Clouds 4000ft
Broken Clouds 5000ft
Broken Clouds 10000ft
Luchtdruk 1017
Wijzigen -
Ruw ETNW 131220Z 25006KT 9999 FEW040 BKN050 BKN100 15/04 Q1017 BLU BLU

VFR

15°C / 4°C

[Meer]
Wind 250º 8kt
Zicht 9700m
Weer -
Wolken Few Clouds 3900ft
Broken Clouds 4500ft
Broken Clouds 14000ft
Luchtdruk 1017
Wijzigen -
Ruw ETNW 131120Z 25008KT 9999 FEW039 BKN045 BKN140 15/04 Q1017 BLU BLU

VFR

15°C / 5°C

[Meer]
Wind 280º 7kt
Zicht 9700m
Weer -
Wolken Scattered Clouds 3900ft
Broken Clouds 10000ft
Luchtdruk 1017
Wijzigen -
Ruw ETNW 131020Z 28007KT 9999 SCT039 BKN100 15/05 Q1017 BLU BLU

VFR

14°C / 5°C

[Meer]
Wind 240º 8kt
Zicht 9700m
Weer -
Wolken Scattered Clouds 3200ft
Broken Clouds 11000ft
Luchtdruk 1018
Wijzigen -
Ruw ETNW 130920Z 24008KT 9999 SCT032 BKN110 14/05 Q1018 BLU BLU

VFR

14°C / 6°C

[Meer]
Wind 250º 9kt
Zicht 9700m
Weer -
Wolken Scattered Clouds 3100ft
Broken Clouds 11000ft
Luchtdruk 1018
Wijzigen -
Ruw ETNW 130850Z 25009KT 9999 SCT031 BKN110 14/06 Q1018 BLU BLU

VFR

13°C / 6°C

[Meer]
Wind 270º 8kt
Zicht 9700m
Weer -
Wolken Scattered Clouds 3200ft
Scattered Clouds 10000ft
Luchtdruk 1018
Wijzigen Becoming: blowing .
Ruw ETNW 130820Z 27008KT 9999 SCT032 SCT100 13/06 Q1018 BLU+BLU+ BECMG BLU

VFR

13°C / 6°C

[Meer]
Wind 240º 6kt
Zicht 9700m
Weer -
Wolken Scattered Clouds 2700ft
Scattered Clouds 11000ft
Luchtdruk 1018
Wijzigen Becoming: blowing .
Ruw ETNW 130720Z 24006KT 9999 SCT027 SCT110 13/06 Q1018 BLU+BLU+ BECMG BLU

VFR

11°C / 6°C

[Meer]
Wind 250º 5kt
Zicht 9700m
Weer -
Wolken Few Clouds 3000ft
Luchtdruk 1018
Wijzigen Becoming: blowing .
Ruw ETNW 130620Z 25005KT 9999 FEW030 11/06 Q1018 BLU+BLU+ BECMG BLU

VFR

10°C / 6°C

[Meer]
Wind 250º 5kt
Zicht 9700m
Weer -
Wolken Few Clouds 11000ft
Luchtdruk 1018
Wijzigen Becoming: blowing .
Ruw ETNW 130520Z 25005KT 9999 FEW110 10/06 Q1018 BLU+BLU+ BECMG BLU

VFR

8°C / 6°C

[Meer]
Wind 240º 3kt
Zicht 9700m
Weer -
Wolken Scattered Clouds 11000ft
Luchtdruk 1018
Wijzigen Becoming: blowing .
Ruw ETNW 130420Z 24003KT 9999 SCT110 08/06 Q1018 BLU+BLU+ BECMG BLU

VFR

8°C / 6°C

[Meer]
Wind 240º 3kt
Zicht 9700m
Weer -
Wolken Broken Clouds 12000ft
Luchtdruk 1018
Wijzigen -
Ruw ETNW 130320Z 24003KT 9999 BKN120 08/06 Q1018 BLU

TAF voor Bordenau (ETNW)

From till


From till Wind 160º 5kt. Visibility 9700m. Broken Clouds 10000ft.
Temporarly from till Wind 180º 10kt. Visibility 8000m. Light Rain . Broken Clouds 6000ft.

Ruw: TAF ETNW 132206Z 1323/1423 16005KT 9999 NSW BKN100 TEMPO 1405/1423 18010KT 8000 -RA BKN060

rainNOW: Regenvoorspelling voor Bordenau en omgeving (25km radius)

0.0 mm
0.0 mm
0.0 mm
0.0 mm
0.0 mm
0.0 mm
0.0 mm
0.0 mm
0.0 mm
0.0 mm
0.0 mm
0.0 mm

Radar en neerslag nowcast voor Bordenau

Motregen
Licht
Matig
Zwaar
Zeer zwaar
Hagel

De locatiemarkering is op Bordenau geplaatst . Deze animatie toont de neerslagradar voor het geselecteerde tijdvak, alsmede een 2h voorspelling. Oranje kruisjes geven de bliksem aan. Gegevens verstrekt door nowcast.de (beschikbaar in de VS, Europa en Australië). Motregen of lichte sneeuwval kan onzichtbaar zijn voor de radar. De neerslagintensiteit heeft een kleurcode, gaande van turkoois tot rood.

Huidige satelliet- en regenbeelden voor Bordenau, Duitsland

De locatiemarkering is op Bordenau geplaatst. [Meer]

Het realtime satellietbeeld combineert zichtbaar licht overdag met infraroodstraling 's nachts. 's Nachts is het beeld niet donker, omdat infraroodstraling temperatuurverschillen kan waarnemen. Helaas zijn lage wolken en mist moeilijk te onderscheiden van grondtemperaturen en kunnen dus 's nachts bijna onzichtbaar zijn. Meteosat-satellietbeelden voor Europa worden elke 5 minuten in real time bijgewerkt. De beelden van GOES-16/GOES-17 (Noord- en Zuid-Amerika) en Himawari (Azië) worden om de 10 minuten bijgewerkt.

De neerslag wordt geschat met behulp van radar en satellieten. Neerslagschattingen van satellieten zijn 's nachts minder nauwkeurig dan overdag.

© 2024 meteoblue, NOAA Satellites GOES-16 and EUMETSAT. Bliksemgegevens verstrekt door nowcast.

Terug naar boven
×
Hallo daar,
Het lijkt erop dat u een advertentieblokker gebruikt.

Reclame is van essentieel belang om onze gratis website te onderhouden met unieke details en nauwkeurigheid.

Gelieve www.meteoblue.com te whitelisten op uw ad blocker of overweeg één van onze producten:

Heeft u al een abonnement?
Dan kunt u inloggen.